sensor_id;sensor_type;location;lat;lon;timestamp;pressure;altitude;pressure_sealevel;temperature;humidity
22255;BME280;11296;42.684;23.322;2022-10-14T00:01:21;69030.91;;;-141.65;100.00
22255;BME280;11296;42.684;23.322;2022-10-14T00:03:47;69030.91;;;-141.65;100.00
22255;BME280;11296;42.684;23.322;2022-10-14T00:06:18;69030.91;;;-141.65;100.00
22255;BME280;11296;42.684;23.322;2022-10-14T00:08:44;69030.91;;;-141.65;100.00
22255;BME280;11296;42.684;23.322;2022-10-14T00:24:07;95545.81;;;14.24;100.00
22255;BME280;11296;42.684;23.322;2022-10-14T00:26:36;95544.38;;;14.02;100.00
22255;BME280;11296;42.684;23.322;2022-10-14T00:29:06;95528.47;;;13.84;100.00
22255;BME280;11296;42.684;23.322;2022-10-14T00:31:33;95523.41;;;13.72;100.00
22255;BME280;11296;42.684;23.322;2022-10-14T00:33:59;95541.44;;;13.80;100.00
22255;BME280;11296;42.684;23.322;2022-10-14T00:36:25;95545.22;;;13.88;100.00
22255;BME280;11296;42.684;23.322;2022-10-14T00:38:52;95502.50;;;13.47;100.00
22255;BME280;11296;42.684;23.322;2022-10-14T00:41:26;95518.78;;;13.52;100.00
22255;BME280;11296;42.684;23.322;2022-10-14T00:43:59;95562.81;;;13.78;100.00
22255;BME280;11296;42.684;23.322;2022-10-14T00:46:28;95521.22;;;13.50;100.00
22255;BME280;11296;42.684;23.322;2022-10-14T00:49:07;95563.22;;;13.71;100.00
22255;BME280;11296;42.684;23.322;2022-10-14T00:51:36;95518.53;;;13.50;100.00
22255;BME280;11296;42.684;23.322;2022-10-14T00:54:03;95543.22;;;13.63;100.00
22255;BME280;11296;42.684;23.322;2022-10-14T00:56:29;95507.16;;;13.46;100.00
22255;BME280;11296;42.684;23.322;2022-10-14T00:58:56;95511.47;;;13.58;100.00
22255;BME280;11296;42.684;23.322;2022-10-14T01:01:23;95497.56;;;13.45;100.00
22255;BME280;11296;42.684;23.322;2022-10-14T01:03:48;95496.06;;;13.44;100.00
22255;BME280;11296;42.684;23.322;2022-10-14T01:09:12;95529.56;;;13.72;100.00
22255;BME280;11296;42.684;23.322;2022-10-14T01:23:56;95506.56;;;13.36;100.00
22255;BME280;11296;42.684;23.322;2022-10-14T01:26:28;95519.72;;;13.49;100.00
22255;BME280;11296;42.684;23.322;2022-10-14T01:37:48;95485.75;;;13.22;100.00
22255;BME280;11296;42.684;23.322;2022-10-14T01:40:25;95480.75;;;13.15;100.00
22255;BME280;11296;42.684;23.322;2022-10-14T01:42:55;95501.22;;;13.22;100.00
22255;BME280;11296;42.684;23.322;2022-10-14T01:45:22;95472.31;;;13.08;100.00
22255;BME280;11296;42.684;23.322;2022-10-14T01:47:49;95472.59;;;13.10;100.00
22255;BME280;11296;42.684;23.322;2022-10-14T01:50:18;95480.84;;;13.21;100.00
22255;BME280;11296;42.684;23.322;2022-10-14T01:52:52;95485.22;;;13.18;100.00
22255;BME280;11296;42.684;23.322;2022-10-14T01:55:24;95509.19;;;13.31;100.00
22255;BME280;11296;42.684;23.322;2022-10-14T01:57:53;95512.16;;;13.33;100.00
22255;BME280;11296;42.684;23.322;2022-10-14T02:00:21;95493.09;;;13.22;100.00
22255;BME280;11296;42.684;23.322;2022-10-14T02:02:46;95506.09;;;13.18;100.00
22255;BME280;11296;42.684;23.322;2022-10-14T02:05:30;95513.31;;;13.26;100.00
22255;BME280;11296;42.684;23.322;2022-10-14T02:11:13;95482.28;;;13.02;100.00
22255;BME280;11296;42.684;23.322;2022-10-14T02:16:48;95508.31;;;13.19;100.00
22255;BME280;11296;42.684;23.322;2022-10-14T02:22:24;95519.25;;;13.10;100.00
22255;BME280;11296;42.684;23.322;2022-10-14T02:24:55;95471.34;;;12.91;100.00
22255;BME280;11296;42.684;23.322;2022-10-14T02:27:25;95507.03;;;13.15;100.00
22255;BME280;11296;42.684;23.322;2022-10-14T02:29:54;95461.28;;;12.91;100.00
22255;BME280;11296;42.684;23.322;2022-10-14T02:32:23;95477.63;;;13.02;100.00
22255;BME280;11296;42.684;23.322;2022-10-14T02:34:52;95458.50;;;12.86;100.00
22255;BME280;11296;42.684;23.322;2022-10-14T02:37:20;95493.44;;;13.09;100.00
22255;BME280;11296;42.684;23.322;2022-10-14T02:39:53;95495.22;;;13.12;100.00
22255;BME280;11296;42.684;23.322;2022-10-14T02:42:23;95470.66;;;12.96;100.00
22255;BME280;11296;42.684;23.322;2022-10-14T02:44:57;95490.97;;;13.06;100.00
22255;BME280;11296;42.684;23.322;2022-10-14T02:47:25;95451.19;;;12.72;100.00
22255;BME280;11296;42.684;23.322;2022-10-14T02:49:51;95430.75;;;12.65;100.00
22255;BME280;11296;42.684;23.322;2022-10-14T02:52:17;95463.94;;;12.71;100.00
22255;BME280;11296;42.684;23.322;2022-10-14T02:54:43;95431.22;;;12.63;100.00
22255;BME280;11296;42.684;23.322;2022-10-14T02:57:09;95459.44;;;12.83;100.00
22255;BME280;11296;42.684;23.322;2022-10-14T02:59:35;95466.34;;;12.84;100.00
22255;BME280;11296;42.684;23.322;2022-10-14T03:02:01;95483.09;;;12.88;100.00
22255;BME280;11296;42.684;23.322;2022-10-14T03:04:27;95422.84;;;12.41;100.00
22255;BME280;11296;42.684;23.322;2022-10-14T03:06:53;95479.56;;;12.82;100.00
22255;BME280;11296;42.684;23.322;2022-10-14T03:09:21;95483.09;;;12.88;100.00
22255;BME280;11296;42.684;23.322;2022-10-14T03:11:48;95462.06;;;12.57;100.00
22255;BME280;11296;42.684;23.322;2022-10-14T03:14:16;95488.81;;;12.75;100.00
22255;BME280;11296;42.684;23.322;2022-10-14T03:16:43;95437.22;;;12.53;100.00
22255;BME280;11296;42.684;23.322;2022-10-14T03:19:13;95458.00;;;12.67;100.00
22255;BME280;11296;42.684;23.322;2022-10-14T03:21:45;95440.75;;;12.59;100.00
22255;BME280;11296;42.684;23.322;2022-10-14T03:24:17;95433.03;;;12.52;100.00
22255;BME280;11296;42.684;23.322;2022-10-14T03:26:44;95455.78;;;12.65;100.00
22255;BME280;11296;42.684;23.322;2022-10-14T03:29:10;95442.81;;;12.49;100.00
22255;BME280;11296;42.684;23.322;2022-10-14T03:31:51;95425.91;;;12.34;100.00
22255;BME280;11296;42.684;23.322;2022-10-14T03:34:22;95467.50;;;12.62;100.00
22255;BME280;11296;42.684;23.322;2022-10-14T03:36:56;95420.25;;;12.32;100.00
22255;BME280;11296;42.684;23.322;2022-10-14T03:39:24;95439.78;;;12.42;100.00
22255;BME280;11296;42.684;23.322;2022-10-14T03:41:50;95470.63;;;12.55;100.00
22255;BME280;11296;42.684;23.322;2022-10-14T03:44:21;95469.41;;;12.56;100.00
22255;BME280;11296;42.684;23.322;2022-10-14T03:47:09;95445.44;;;12.44;100.00
22255;BME280;11296;42.684;23.322;2022-10-14T03:49:36;95430.50;;;12.28;100.00
22255;BME280;11296;42.684;23.322;2022-10-14T03:52:09;95447.38;;;12.43;100.00
22255;BME280;11296;42.684;23.322;2022-10-14T03:54:36;95444.91;;;12.40;100.00
22255;BME280;11296;42.684;23.322;2022-10-14T03:57:02;95441.81;;;12.32;100.00
22255;BME280;11296;42.684;23.322;2022-10-14T03:59:37;95482.25;;;12.61;100.00
22255;BME280;11296;42.684;23.322;2022-10-14T04:02:09;95482.25;;;12.61;100.00
22255;BME280;11296;42.684;23.322;2022-10-14T04:04:38;95448.50;;;12.37;100.00
22255;BME280;11296;42.684;23.322;2022-10-14T04:07:04;95419.34;;;12.21;100.00
22255;BME280;11296;42.684;23.322;2022-10-14T04:09:30;95437.66;;;12.31;100.00
22255;BME280;11296;42.684;23.322;2022-10-14T04:11:56;95407.81;;;12.20;100.00
22255;BME280;11296;42.684;23.322;2022-10-14T04:14:45;95432.41;;;12.42;100.00
22255;BME280;11296;42.684;23.322;2022-10-14T04:17:11;95422.88;;;12.27;100.00
22255;BME280;11296;42.684;23.322;2022-10-14T04:19:36;95452.88;;;12.49;100.00
22255;BME280;11296;42.684;23.322;2022-10-14T04:22:02;95410.13;;;12.27;100.00
22255;BME280;11296;42.684;23.322;2022-10-14T04:24:28;95453.22;;;12.56;100.00
22255;BME280;11296;42.684;23.322;2022-10-14T04:26:57;95443.91;;;12.57;100.00
22255;BME280;11296;42.684;23.322;2022-10-14T04:29:52;95453.22;;;12.56;100.00
22255;BME280;11296;42.684;23.322;2022-10-14T04:32:26;95410.22;;;12.18;100.00
22255;BME280;11296;42.684;23.322;2022-10-14T04:34:52;95459.94;;;12.46;100.00
22255;BME280;11296;42.684;23.322;2022-10-14T04:37:22;95419.34;;;12.21;100.00
22255;BME280;11296;42.684;23.322;2022-10-14T04:39:56;95426.19;;;12.36;100.00
22255;BME280;11296;42.684;23.322;2022-10-14T04:42:23;95401.47;;;12.23;100.00
22255;BME280;11296;42.684;23.322;2022-10-14T04:44:56;95429.72;;;12.42;100.00
22255;BME280;11296;42.684;23.322;2022-10-14T04:47:31;95425.72;;;12.38;100.00
22255;BME280;11296;42.684;23.322;2022-10-14T04:50:00;95417.28;;;12.30;100.00
22255;BME280;11296;42.684;23.322;2022-10-14T04:52:28;95418.19;;;12.42;100.00
22255;BME280;11296;42.684;23.322;2022-10-14T04:55:00;95438.38;;;12.46;100.00
22255;BME280;11296;42.684;23.322;2022-10-14T04:57:35;95448.09;;;12.58;100.00
22255;BME280;11296;42.684;23.322;2022-10-14T05:00:03;95383.94;;;12.13;100.00
22255;BME280;11296;42.684;23.322;2022-10-14T05:02:42;95421.06;;;12.38;100.00
22255;BME280;11296;42.684;23.322;2022-10-14T05:05:09;95427.47;;;12.41;100.00
22255;BME280;11296;42.684;23.322;2022-10-14T05:07:38;95393.53;;;12.34;100.00
22255;BME280;11296;42.684;23.322;2022-10-14T05:10:19;95425.69;;;12.52;100.00
22255;BME280;11296;42.684;23.322;2022-10-14T05:12:46;95404.56;;;12.51;100.00
22255;BME280;11296;42.684;23.322;2022-10-14T05:15:13;95418.22;;;12.62;100.00
22255;BME280;11296;42.684;23.322;2022-10-14T05:17:54;95402.28;;;12.64;100.00
22255;BME280;11296;42.684;23.322;2022-10-14T05:20:27;95402.09;;;12.68;100.00
22255;BME280;11296;42.684;23.322;2022-10-14T05:22:55;95408.97;;;12.69;100.00
22255;BME280;11296;42.684;23.322;2022-10-14T05:25:21;95408.88;;;12.63;100.00
22255;BME280;11296;42.684;23.322;2022-10-14T05:27:50;95397.91;;;12.67;100.00
22255;BME280;11296;42.684;23.322;2022-10-14T05:30:19;95436.09;;;13.00;100.00
22255;BME280;11296;42.684;23.322;2022-10-14T05:32:51;95401.28;;;12.82;100.00
22255;BME280;11296;42.684;23.322;2022-10-14T05:35:19;95400.59;;;12.87;100.00
22255;BME280;11296;42.684;23.322;2022-10-14T05:37:44;95421.06;;;13.13;100.00
22255;BME280;11296;42.684;23.322;2022-10-14T05:40:10;95424.72;;;13.10;100.00
22255;BME280;11296;42.684;23.322;2022-10-14T05:42:37;95427.28;;;13.19;100.00
22255;BME280;11296;42.684;23.322;2022-10-14T05:45:04;95415.41;;;13.11;100.00
22255;BME280;11296;42.684;23.322;2022-10-14T05:47:33;95423.69;;;13.28;100.00
22255;BME280;11296;42.684;23.322;2022-10-14T05:50:08;95418.16;;;13.17;100.00
22255;BME280;11296;42.684;23.322;2022-10-14T05:52:37;95420.78;;;13.31;100.00
22255;BME280;11296;42.684;23.322;2022-10-14T05:55:13;95396.41;;;13.26;100.00
22255;BME280;11296;42.684;23.322;2022-10-14T05:57:40;95432.81;;;13.56;100.00
22255;BME280;11296;42.684;23.322;2022-10-14T06:00:10;95427.31;;;13.45;100.00
22255;BME280;11296;42.684;23.322;2022-10-14T06:02:42;95444.38;;;13.57;100.00
22255;BME280;11296;42.684;23.322;2022-10-14T06:05:11;95455.09;;;13.71;100.00
22255;BME280;11296;42.684;23.322;2022-10-14T06:07:37;95408.66;;;13.47;100.00
22255;BME280;11296;42.684;23.322;2022-10-14T06:10:04;95418.63;;;13.61;100.00
22255;BME280;11296;42.684;23.322;2022-10-14T06:12:31;95454.28;;;13.65;100.00
22255;BME280;11296;42.684;23.322;2022-10-14T06:14:57;95414.69;;;13.36;100.00
22255;BME280;11296;42.684;23.322;2022-10-14T06:17:23;95439.44;;;13.55;100.00
22255;BME280;11296;42.684;23.322;2022-10-14T06:19:51;95458.03;;;13.73;100.00
22255;BME280;11296;42.684;23.322;2022-10-14T06:22:17;95434.88;;;13.67;100.00
22255;BME280;11296;42.684;23.322;2022-10-14T06:24:42;95436.94;;;13.77;100.00
22255;BME280;11296;42.684;23.322;2022-10-14T06:27:08;95459.28;;;13.72;100.00
22255;BME280;11296;42.684;23.322;2022-10-14T06:29:34;95473.84;;;13.80;100.00
22255;BME280;11296;42.684;23.322;2022-10-14T06:32:07;95466.25;;;13.84;100.00
22255;BME280;11296;42.684;23.322;2022-10-14T06:34:35;95422.63;;;13.71;100.00
22255;BME280;11296;42.684;23.322;2022-10-14T06:37:01;95443.63;;;13.82;100.00
22255;BME280;11296;42.684;23.322;2022-10-14T06:39:30;95465.69;;;14.00;100.00
22255;BME280;11296;42.684;23.322;2022-10-14T06:41:55;95448.38;;;13.92;100.00
22255;BME280;11296;42.684;23.322;2022-10-14T06:44:22;95440.19;;;14.12;100.00
22255;BME280;11296;42.684;23.322;2022-10-14T06:46:48;95461.53;;;14.31;100.00
22255;BME280;11296;42.684;23.322;2022-10-14T06:49:13;95438.94;;;14.08;100.00
22255;BME280;11296;42.684;23.322;2022-10-14T06:51:41;95447.13;;;14.19;100.00
22255;BME280;11296;42.684;23.322;2022-10-14T06:54:07;95459.31;;;14.35;100.00
22255;BME280;11296;42.684;23.322;2022-10-14T06:56:32;95473.00;;;14.57;100.00
22255;BME280;11296;42.684;23.322;2022-10-14T06:58:59;95451.66;;;14.64;100.00
22255;BME280;11296;42.684;23.322;2022-10-14T07:01:27;95426.75;;;14.55;100.00
22255;BME280;11296;42.684;23.322;2022-10-14T07:03:54;95455.31;;;14.61;100.00
22255;BME280;11296;42.684;23.322;2022-10-14T07:06:20;95412.25;;;14.63;100.00
22255;BME280;11296;42.684;23.322;2022-10-14T07:08:46;95475.03;;;15.10;100.00
22255;BME280;11296;42.684;23.322;2022-10-14T07:11:12;95438.72;;;14.85;100.00
22255;BME280;11296;42.684;23.322;2022-10-14T07:13:40;95457.06;;;15.12;100.00
22255;BME280;11296;42.684;23.322;2022-10-14T07:16:09;95437.09;;;15.04;100.00
22255;BME280;11296;42.684;23.322;2022-10-14T07:18:35;95428.47;;;15.00;100.00
22255;BME280;11296;42.684;23.322;2022-10-14T07:21:03;95404.69;;;14.73;100.00
22255;BME280;11296;42.684;23.322;2022-10-14T07:23:29;95439.25;;;14.89;100.00
22255;BME280;11296;42.684;23.322;2022-10-14T07:25:56;95482.75;;;15.33;100.00
22255;BME280;11296;42.684;23.322;2022-10-14T07:28:22;95443.78;;;15.14;100.00
22255;BME280;11296;42.684;23.322;2022-10-14T07:31:08;95478.59;;;15.38;100.00
22255;BME280;11296;42.684;23.322;2022-10-14T07:33:38;95425.66;;;14.83;100.00
22255;BME280;11296;42.684;23.322;2022-10-14T07:36:11;95431.13;;;14.89;100.00
22255;BME280;11296;42.684;23.322;2022-10-14T07:38:39;95447.72;;;15.19;100.00
22255;BME280;11296;42.684;23.322;2022-10-14T07:41:33;95466.25;;;15.31;100.00
22255;BME280;11296;42.684;23.322;2022-10-14T07:44:05;95419.03;;;14.90;100.00
22255;BME280;11296;42.684;23.322;2022-10-14T07:46:36;95449.97;;;15.26;100.00
22255;BME280;11296;42.684;23.322;2022-10-14T07:49:07;95451.97;;;15.36;100.00
22255;BME280;11296;42.684;23.322;2022-10-14T07:51:34;95412.38;;;15.50;100.00
22255;BME280;11296;42.684;23.322;2022-10-14T07:54:06;95421.75;;;15.54;100.00
22255;BME280;11296;42.684;23.322;2022-10-14T07:56:38;95449.88;;;15.74;100.00
22255;BME280;11296;42.684;23.322;2022-10-14T07:59:04;95451.06;;;15.56;100.00
22255;BME280;11296;42.684;23.322;2022-10-14T08:01:31;95446.88;;;15.49;100.00
22255;BME280;11296;42.684;23.322;2022-10-14T08:03:56;95432.59;;;15.54;100.00
22255;BME280;11296;42.684;23.322;2022-10-14T08:06:22;95430.09;;;15.45;100.00
22255;BME280;11296;42.684;23.322;2022-10-14T08:08:48;95441.44;;;15.49;100.00
22255;BME280;11296;42.684;23.322;2022-10-14T08:11:17;95440.03;;;15.71;100.00
22255;BME280;11296;42.684;23.322;2022-10-14T08:13:43;95455.31;;;15.74;100.00
22255;BME280;11296;42.684;23.322;2022-10-14T08:16:14;95460.53;;;15.99;100.00
22255;BME280;11296;42.684;23.322;2022-10-14T08:18:40;95408.69;;;15.58;100.00
22255;BME280;11296;42.684;23.322;2022-10-14T08:21:06;95416.09;;;15.80;100.00
22255;BME280;11296;42.684;23.322;2022-10-14T08:23:31;95474.34;;;16.01;100.00
22255;BME280;11296;42.684;23.322;2022-10-14T08:25:57;95435.06;;;15.52;100.00
22255;BME280;11296;42.684;23.322;2022-10-14T08:28:23;95427.66;;;15.47;100.00
22255;BME280;11296;42.684;23.322;2022-10-14T08:30:49;95463.94;;;15.89;100.00
22255;BME280;11296;42.684;23.322;2022-10-14T08:33:17;95445.97;;;15.97;100.00
22255;BME280;11296;42.684;23.322;2022-10-14T08:35:43;95431.16;;;16.20;100.00
22255;BME280;11296;42.684;23.322;2022-10-14T08:38:09;95444.50;;;16.18;100.00
22255;BME280;11296;42.684;23.322;2022-10-14T08:40:55;95452.13;;;16.47;100.00
22255;BME280;11296;42.684;23.322;2022-10-14T08:43:32;95448.41;;;16.39;100.00
22255;BME280;11296;42.684;23.322;2022-10-14T08:46:20;95461.75;;;16.26;100.00
22255;BME280;11296;42.684;23.322;2022-10-14T08:48:50;95450.88;;;16.37;100.00
22255;BME280;11296;42.684;23.322;2022-10-14T08:51:20;95471.88;;;16.42;100.00
22255;BME280;11296;42.684;23.322;2022-10-14T08:53:50;95444.22;;;16.21;100.00
22255;BME280;11296;42.684;23.322;2022-10-14T08:56:22;95437.31;;;16.15;100.00
22255;BME280;11296;42.684;23.322;2022-10-14T08:58:49;95430.66;;;16.27;100.00
22255;BME280;11296;42.684;23.322;2022-10-14T09:01:24;95470.91;;;16.51;100.00
22255;BME280;11296;42.684;23.322;2022-10-14T09:04:01;95458.00;;;16.79;100.00
22255;BME280;11296;42.684;23.322;2022-10-14T09:06:33;95454.88;;;17.32;100.00
22255;BME280;11296;42.684;23.322;2022-10-14T09:11:37;95444.06;;;17.21;95.93
22255;BME280;11296;42.684;23.322;2022-10-14T09:14:08;95428.00;;;17.18;92.83
22255;BME280;11296;42.684;23.322;2022-10-14T09:16:37;95456.84;;;17.32;91.69
22255;BME280;11296;42.684;23.322;2022-10-14T09:19:08;95416.38;;;17.69;89.18
22255;BME280;11296;42.684;23.322;2022-10-14T09:21:45;95427.03;;;18.02;85.48
22255;BME280;11296;42.684;23.322;2022-10-14T09:24:17;95453.53;;;18.31;86.36
22255;BME280;11296;42.684;23.322;2022-10-14T09:26:50;95422.16;;;18.25;85.17
22255;BME280;11296;42.684;23.322;2022-10-14T09:29:23;95436.66;;;18.38;85.45
22255;BME280;11296;42.684;23.322;2022-10-14T09:31:50;95440.78;;;18.15;87.22
22255;BME280;11296;42.684;23.322;2022-10-14T09:34:19;95421.19;;;18.22;87.44
22255;BME280;11296;42.684;23.322;2022-10-14T09:37:33;95407.75;;;18.00;88.45
22255;BME280;11296;42.684;23.322;2022-10-14T09:40:16;95440.31;;;18.46;88.29
22255;BME280;11296;42.684;23.322;2022-10-14T09:46:06;95417.84;;;18.65;85.76
22255;BME280;11296;42.684;23.322;2022-10-14T09:48:46;95410.06;;;19.17;84.63
22255;BME280;11296;42.684;23.322;2022-10-14T09:51:25;95428.31;;;19.28;82.92
22255;BME280;11296;42.684;23.322;2022-10-14T09:53:55;95424.69;;;19.19;84.12
22255;BME280;11296;42.684;23.322;2022-10-14T09:56:38;95432.50;;;19.29;83.68
22255;BME280;11296;42.684;23.322;2022-10-14T09:59:16;95417.63;;;19.48;82.78
22255;BME280;11296;42.684;23.322;2022-10-14T10:01:59;95422.78;;;19.70;78.37
22255;BME280;11296;42.684;23.322;2022-10-14T10:04:35;95408.88;;;19.55;76.37
22255;BME280;11296;42.684;23.322;2022-10-14T10:07:05;95394.41;;;19.60;77.14
22255;BME280;11296;42.684;23.322;2022-10-14T10:09:34;95419.94;;;20.13;74.37
22255;BME280;11296;42.684;23.322;2022-10-14T10:12:37;95439.44;;;20.04;74.92
22255;BME280;11296;42.684;23.322;2022-10-14T10:15:17;95405.06;;;19.95;74.66
22255;BME280;11296;42.684;23.322;2022-10-14T10:17:43;95422.94;;;19.78;71.52
22255;BME280;11296;42.684;23.322;2022-10-14T10:22:44;95398.44;;;19.91;72.38
22255;BME280;11296;42.684;23.322;2022-10-14T10:25:15;95430.00;;;19.86;70.33
22255;BME280;11296;42.684;23.322;2022-10-14T10:27:47;95433.13;;;19.59;66.03
22255;BME280;11296;42.684;23.322;2022-10-14T10:35:29;95405.38;;;19.73;67.72
22255;BME280;11296;42.684;23.322;2022-10-14T10:38:24;95418.88;;;20.16;65.75
22255;BME280;11296;42.684;23.322;2022-10-14T10:43:52;95359.69;;;20.90;65.59
22255;BME280;11296;42.684;23.322;2022-10-14T10:49:29;95401.66;;;21.31;60.14
22255;BME280;11296;42.684;23.322;2022-10-14T10:52:28;95391.16;;;21.09;60.86
22255;BME280;11296;42.684;23.322;2022-10-14T10:55:17;95355.06;;;20.98;60.01
22255;BME280;11296;42.684;23.322;2022-10-14T10:58:20;95396.00;;;21.03;61.68
22255;BME280;11296;42.684;23.322;2022-10-14T11:04:19;95385.34;;;20.87;60.66
22255;BME280;11296;42.684;23.322;2022-10-14T11:06:52;95388.88;;;21.81;56.14
22255;BME280;11296;42.684;23.322;2022-10-14T11:18:50;95349.38;;;21.89;48.78
22255;BME280;11296;42.684;23.322;2022-10-14T11:26:58;95338.84;;;22.01;45.06
22255;BME280;11296;42.684;23.322;2022-10-14T11:32:18;95340.91;;;22.29;43.16
22255;BME280;11296;42.684;23.322;2022-10-14T11:35:17;95348.13;;;23.46;42.13
22255;BME280;11296;42.684;23.322;2022-10-14T11:43:47;95323.25;;;25.75;35.17
22255;BME280;11296;42.684;23.322;2022-10-14T11:46:24;95290.06;;;25.90;32.62
22255;BME280;11296;42.684;23.322;2022-10-14T11:48:58;95309.19;;;25.63;31.99
22255;BME280;11296;42.684;23.322;2022-10-14T11:54:19;95277.91;;;25.36;32.48
22255;BME280;11296;42.684;23.322;2022-10-14T11:57:00;95292.25;;;24.95;32.63
22255;BME280;11296;42.684;23.322;2022-10-14T11:59:57;95322.44;;;25.18;32.16
22255;BME280;11296;42.684;23.322;2022-10-14T12:02:41;95319.47;;;24.76;33.16
22255;BME280;11296;42.684;23.322;2022-10-14T12:10:44;95294.66;;;24.83;33.78
22255;BME280;11296;42.684;23.322;2022-10-14T12:13:16;95301.72;;;24.39;33.81
22255;BME280;11296;42.684;23.322;2022-10-14T12:15:47;95287.97;;;24.32;34.60
22255;BME280;11296;42.684;23.322;2022-10-14T12:18:16;95308.13;;;24.04;35.22
22255;BME280;11296;42.684;23.322;2022-10-14T12:23:35;95332.06;;;23.50;36.40
22255;BME280;11296;42.684;23.322;2022-10-14T12:28:38;95300.09;;;21.56;39.51
22255;BME280;11296;42.684;23.322;2022-10-14T12:31:34;95328.47;;;20.59;41.37
22255;BME280;11296;42.684;23.322;2022-10-14T12:36:37;95305.72;;;20.12;44.98
22255;BME280;11296;42.684;23.322;2022-10-14T12:39:30;95323.22;;;20.22;45.25
22255;BME280;11296;42.684;23.322;2022-10-14T12:42:10;95309.94;;;20.13;45.71
22255;BME280;11296;42.684;23.322;2022-10-14T12:44:49;95272.47;;;19.68;46.49
22255;BME280;11296;42.684;23.322;2022-10-14T12:47:28;95300.00;;;19.83;48.58
22255;BME280;11296;42.684;23.322;2022-10-14T12:49:59;95308.53;;;19.93;50.26
22255;BME280;11296;42.684;23.322;2022-10-14T12:52:32;95333.44;;;20.03;51.22
22255;BME280;11296;42.684;23.322;2022-10-14T12:55:00;95329.03;;;20.00;51.21
22255;BME280;11296;42.684;23.322;2022-10-14T12:57:34;95303.47;;;19.84;52.35
22255;BME280;11296;42.684;23.322;2022-10-14T13:02:54;95310.19;;;20.28;50.73
22255;BME280;11296;42.684;23.322;2022-10-14T13:05:36;95302.63;;;20.34;49.39
22255;BME280;11296;42.684;23.322;2022-10-14T13:21:26;95305.34;;;20.34;49.40
22255;BME280;11296;42.684;23.322;2022-10-14T13:23:59;95309.75;;;20.24;49.81
22255;BME280;11296;42.684;23.322;2022-10-14T13:32:03;95340.66;;;19.55;53.34
22255;BME280;11296;42.684;23.322;2022-10-14T13:39:54;95290.47;;;18.89;54.20
22255;BME280;11296;42.684;23.322;2022-10-14T13:42:31;95279.91;;;18.37;55.87
22255;BME280;11296;42.684;23.322;2022-10-14T13:45:10;95305.25;;;18.32;57.09
22255;BME280;11296;42.684;23.322;2022-10-14T13:47:40;95303.75;;;18.07;58.66
22255;BME280;11296;42.684;23.322;2022-10-14T13:50:10;95296.66;;;18.23;57.16
22255;BME280;11296;42.684;23.322;2022-10-14T13:52:38;95324.00;;;18.36;57.09
22255;BME280;11296;42.684;23.322;2022-10-14T13:55:18;95324.19;;;18.43;55.89
22255;BME280;11296;42.684;23.322;2022-10-14T14:00:35;95265.13;;;17.85;54.91
22255;BME280;11296;42.684;23.322;2022-10-14T14:03:35;95298.44;;;18.87;52.25
22255;BME280;11296;42.684;23.322;2022-10-14T14:06:22;95331.38;;;20.09;49.20
22255;BME280;11296;42.684;23.322;2022-10-14T14:08:52;95319.22;;;20.49;45.74
22255;BME280;11296;42.684;23.322;2022-10-14T14:11:24;95317.75;;;20.35;46.32
22255;BME280;11296;42.684;23.322;2022-10-14T14:14:06;95309.31;;;20.20;46.47
22255;BME280;11296;42.684;23.322;2022-10-14T14:16:35;95311.59;;;20.03;44.84
22255;BME280;11296;42.684;23.322;2022-10-14T14:19:02;95315.81;;;20.04;45.18
22255;BME280;11296;42.684;23.322;2022-10-14T14:21:28;95305.00;;;19.66;45.81
22255;BME280;11296;42.684;23.322;2022-10-14T14:23:59;95324.06;;;19.16;46.92
22255;BME280;11296;42.684;23.322;2022-10-14T14:26:34;95321.34;;;18.97;47.54
22255;BME280;11296;42.684;23.322;2022-10-14T14:29:05;95331.22;;;19.00;47.17
22255;BME280;11296;42.684;23.322;2022-10-14T14:31:31;95292.53;;;18.40;47.86
22255;BME280;11296;42.684;23.322;2022-10-14T14:33:58;95310.47;;;18.55;48.51
22255;BME280;11296;42.684;23.322;2022-10-14T14:36:27;95278.13;;;17.97;49.34
22255;BME280;11296;42.684;23.322;2022-10-14T14:39:00;95344.22;;;18.22;50.69
22255;BME280;11296;42.684;23.322;2022-10-14T14:41:30;95336.53;;;17.96;50.43
22255;BME280;11296;42.684;23.322;2022-10-14T14:44:03;95322.69;;;17.64;50.30
22255;BME280;11296;42.684;23.322;2022-10-14T14:46:39;95337.31;;;17.56;52.15
22255;BME280;11296;42.684;23.322;2022-10-14T14:49:06;95350.69;;;17.59;52.45
22255;BME280;11296;42.684;23.322;2022-10-14T14:51:38;95314.03;;;17.25;52.17
22255;BME280;11296;42.684;23.322;2022-10-14T14:54:06;95344.50;;;17.13;51.71
22255;BME280;11296;42.684;23.322;2022-10-14T14:56:39;95348.97;;;17.10;52.21
22255;BME280;11296;42.684;23.322;2022-10-14T15:01:56;95342.41;;;16.89;52.88
22255;BME280;11296;42.684;23.322;2022-10-14T15:04:25;95348.91;;;16.69;51.97
22255;BME280;11296;42.684;23.322;2022-10-14T15:07:00;95327.69;;;16.46;52.53
22255;BME280;11296;42.684;23.322;2022-10-14T15:09:35;95338.09;;;16.47;53.71
22255;BME280;11296;42.684;23.322;2022-10-14T15:12:04;95332.19;;;16.38;54.47
22255;BME280;11296;42.684;23.322;2022-10-14T15:14:38;95337.59;;;16.38;54.75
22255;BME280;11296;42.684;23.322;2022-10-14T15:17:23;95327.50;;;16.38;55.10
22255;BME280;11296;42.684;23.322;2022-10-14T15:19:50;95334.91;;;16.43;54.23
22255;BME280;11296;42.684;23.322;2022-10-14T15:25:11;95331.97;;;16.30;54.14
22255;BME280;11296;42.684;23.322;2022-10-14T15:27:38;95370.44;;;16.56;53.65
22255;BME280;11296;42.684;23.322;2022-10-14T15:30:24;95372.63;;;16.58;53.48